DAL6631 KCLT-KPWM
Flight info
| Callsign | DAL6631 |
|---|---|
| Flight time | N/A |
| Altitude | 41000 |
| Route | BARMY5 RDU NOWAE Q87 GEARS BBOBO Q22 LLUND BDR SCOGS3 |
| Aircraft | A359/H-SDE2E3GHIJ3J4J5LM1ORWXY/LB1D1 |
Departure
| Time | 2026-05-04 21:50 |
|---|---|
| Airport | Charlotte Douglas International Airport (KCLT) |
Arrival
| Time | N/A |
|---|---|
| Airport | Portland International Jetport (KPWM) |
| Time | Latitude | Longitude | Altitude | Speed | Heading |
|---|---|---|---|---|---|
| 2026-05-04 21:13 | 35.22319 | -80.94127 | 733 ft | 0 kts | 97° |
| 2026-05-04 21:31 | 35.22320 | -80.94139 | 733 ft | 3 kts | 82° |
| 2026-05-04 21:32 | 35.22319 | -80.94154 | 733 ft | 0 kts | 77° |
| 2026-05-04 21:32 | 35.22311 | -80.94176 | 731 ft | 3 kts | 38° |
| 2026-05-04 21:32 | 35.22297 | -80.94186 | 732 ft | 0 kts | 2° |
| 2026-05-04 21:37 | 35.22298 | -80.94186 | 732 ft | 1 kts | 3° |
| 2026-05-04 21:37 | 35.22314 | -80.94185 | 731 ft | 4 kts | 4° |
| 2026-05-04 21:38 | 35.22344 | -80.94176 | 734 ft | 5 kts | 20° |
| 2026-05-04 21:38 | 35.22384 | -80.94157 | 736 ft | 7 kts | 21° |
| 2026-05-04 21:38 | 35.22440 | -80.94137 | 734 ft | 9 kts | 4° |
| 2026-05-04 21:38 | 35.22510 | -80.94140 | 734 ft | 12 kts | 358° |
| 2026-05-04 21:39 | 35.22602 | -80.94141 | 735 ft | 13 kts | 11° |
| 2026-05-04 21:39 | 35.22636 | -80.94060 | 735 ft | 11 kts | 82° |
| 2026-05-04 21:39 | 35.22641 | -80.93993 | 736 ft | 12 kts | 90° |
| 2026-05-04 21:39 | 35.22596 | -80.93862 | 735 ft | 14 kts | 140° |
| 2026-05-04 21:40 | 35.22538 | -80.93843 | 736 ft | 13 kts | 174° |
| 2026-05-04 21:40 | 35.22444 | -80.93831 | 736 ft | 13 kts | 175° |
| 2026-05-04 21:40 | 35.22353 | -80.93824 | 736 ft | 14 kts | 176° |
| 2026-05-04 21:40 | 35.22247 | -80.93815 | 735 ft | 16 kts | 176° |
| 2026-05-04 21:41 | 35.22132 | -80.93805 | 736 ft | 18 kts | 176° |
| 2026-05-04 21:41 | 35.22016 | -80.93806 | 734 ft | 17 kts | 200° |
| 2026-05-04 21:41 | 35.21939 | -80.93890 | 736 ft | 13 kts | 230° |
| 2026-05-04 21:41 | 35.21863 | -80.93941 | 735 ft | 10 kts | 208° |
| 2026-05-04 21:42 | 35.21810 | -80.94009 | 735 ft | 12 kts | 229° |
| 2026-05-04 21:42 | 35.21746 | -80.94096 | 733 ft | 15 kts | 227° |
| 2026-05-04 21:42 | 35.21668 | -80.94193 | 732 ft | 17 kts | 213° |
| 2026-05-04 21:42 | 35.21572 | -80.94269 | 730 ft | 16 kts | 225° |
| 2026-05-04 21:43 | 35.21496 | -80.94370 | 732 ft | 17 kts | 228° |
| 2026-05-04 21:43 | 35.21415 | -80.94481 | 728 ft | 18 kts | 229° |
| 2026-05-04 21:43 | 35.21338 | -80.94607 | 728 ft | 18 kts | 244° |
| 2026-05-04 21:43 | 35.21296 | -80.94746 | 730 ft | 16 kts | 248° |
| 2026-05-04 21:44 | 35.21235 | -80.94848 | 731 ft | 15 kts | 230° |
| 2026-05-04 21:44 | 35.21205 | -80.94945 | 731 ft | 9 kts | 297° |
| 2026-05-04 21:44 | 35.21269 | -80.94988 | 729 ft | 12 kts | 353° |
| 2026-05-04 21:44 | 35.21363 | -80.94998 | 727 ft | 15 kts | 354° |
| 2026-05-04 21:45 | 35.21480 | -80.95010 | 727 ft | 18 kts | 356° |
| 2026-05-04 21:45 | 35.21618 | -80.95021 | 729 ft | 21 kts | 356° |
| 2026-05-04 21:45 | 35.21765 | -80.95032 | 725 ft | 19 kts | 356° |
| 2026-05-04 21:45 | 35.21898 | -80.95044 | 728 ft | 20 kts | 356° |
| 2026-05-04 21:46 | 35.22048 | -80.95056 | 723 ft | 21 kts | 355° |
| 2026-05-04 21:46 | 35.22180 | -80.95068 | 725 ft | 19 kts | 356° |
| 2026-05-04 21:46 | 35.22318 | -80.95080 | 722 ft | 19 kts | 356° |
| 2026-05-04 21:46 | 35.22446 | -80.95091 | 721 ft | 20 kts | 356° |
| 2026-05-04 21:47 | 35.22550 | -80.95100 | 720 ft | 15 kts | 356° |
| 2026-05-04 21:47 | 35.22649 | -80.95108 | 719 ft | 15 kts | 356° |
| 2026-05-04 21:47 | 35.22725 | -80.95145 | 719 ft | 11 kts | 304° |
| 2026-05-04 21:47 | 35.22733 | -80.95174 | 719 ft | 0 kts | 269° |
| 2026-05-04 21:48 | 35.22732 | -80.95197 | 720 ft | 5 kts | 267° |
| 2026-05-04 21:48 | 35.22724 | -80.95258 | 719 ft | 9 kts | 250° |
| 2026-05-04 21:48 | 35.22680 | -80.95306 | 719 ft | 9 kts | 200° |
| 2026-05-04 21:49 | 35.22658 | -80.95308 | 720 ft | 0 kts | 176° |
| 2026-05-04 21:49 | 35.22533 | -80.95298 | 721 ft | 56 kts | 176° |
| 2026-05-04 21:49 | 35.21880 | -80.95247 | 726 ft | 129 kts | 178° |
| 2026-05-04 21:49 | 35.20917 | -80.95041 | 1264 ft | 144 kts | 157° |
| 2026-05-04 21:50 | 35.20333 | -80.94098 | 2009 ft | 144 kts | 109° |
| 2026-05-04 21:50 | 35.19927 | -80.92985 | 2400 ft | 142 kts | 138° |
| 2026-05-04 21:50 | 35.19270 | -80.92116 | 2908 ft | 136 kts | 135° |
| 2026-05-04 21:50 | 35.18670 | -80.91197 | 3262 ft | 143 kts | 131° |
| 2026-05-04 21:51 | 35.18016 | -80.90180 | 3532 ft | 162 kts | 133° |
| 2026-05-04 21:51 | 35.17285 | -80.89008 | 3725 ft | 184 kts | 132° |
| 2026-05-04 21:51 | 35.16462 | -80.87702 | 4007 ft | 204 kts | 132° |
| 2026-05-04 21:51 | 35.15538 | -80.86262 | 4335 ft | 226 kts | 132° |
| 2026-05-04 21:52 | 35.14509 | -80.84697 | 4612 ft | 247 kts | 131° |
| 2026-05-04 21:52 | 35.13376 | -80.83018 | 4974 ft | 264 kts | 132° |
| 2026-05-04 21:52 | 35.12181 | -80.81255 | 5480 ft | 272 kts | 132° |
| 2026-05-04 21:52 | 35.10961 | -80.79436 | 6021 ft | 281 kts | 131° |
| 2026-05-04 21:53 | 35.09719 | -80.77598 | 6603 ft | 287 kts | 132° |
| 2026-05-04 21:53 | 35.08437 | -80.75716 | 7236 ft | 290 kts | 132° |
| 2026-05-04 21:53 | 35.07147 | -80.73812 | 7752 ft | 292 kts | 132° |
| 2026-05-04 21:53 | 35.05851 | -80.71901 | 7997 ft | 292 kts | 132° |
| 2026-05-04 21:54 | 35.04663 | -80.69874 | 8077 ft | 296 kts | 120° |
| 2026-05-04 21:54 | 35.04002 | -80.67485 | 8454 ft | 302 kts | 97° |
| 2026-05-04 21:54 | 35.04210 | -80.64953 | 9135 ft | 302 kts | 70° |
| 2026-05-04 21:54 | 35.05108 | -80.62644 | 9835 ft | 303 kts | 59° |
| 2026-05-04 21:55 | 35.06167 | -80.60393 | 10347 ft | 311 kts | 58° |
| 2026-05-04 21:55 | 35.07287 | -80.58067 | 10610 ft | 327 kts | 58° |
| 2026-05-04 21:55 | 35.08465 | -80.55615 | 10875 ft | 341 kts | 58° |
| 2026-05-04 21:55 | 35.09683 | -80.53059 | 11149 ft | 355 kts | 57° |
| 2026-05-04 21:56 | 35.10940 | -80.50409 | 11519 ft | 365 kts | 58° |
| 2026-05-04 21:56 | 35.12219 | -80.47708 | 11977 ft | 370 kts | 58° |
| 2026-05-04 21:56 | 35.13513 | -80.44969 | 12475 ft | 374 kts | 57° |
| 2026-05-04 21:56 | 35.14821 | -80.42198 | 12938 ft | 379 kts | 57° |
| 2026-05-04 21:57 | 35.16141 | -80.39398 | 13506 ft | 381 kts | 57° |
| 2026-05-04 21:57 | 35.17469 | -80.36578 | 14003 ft | 384 kts | 57° |
| 2026-05-04 21:57 | 35.18804 | -80.33745 | 14484 ft | 386 kts | 57° |
| 2026-05-04 21:57 | 35.20150 | -80.30886 | 14938 ft | 389 kts | 57° |
| 2026-05-04 21:58 | 35.21502 | -80.28008 | 15431 ft | 391 kts | 57° |
| 2026-05-04 21:58 | 35.22861 | -80.25115 | 15923 ft | 394 kts | 57° |
| 2026-05-04 21:58 | 35.24229 | -80.22199 | 16420 ft | 396 kts | 57° |
| 2026-05-04 21:58 | 35.25604 | -80.19268 | 16909 ft | 398 kts | 57° |
| 2026-05-04 21:59 | 35.26966 | -80.16360 | 17386 ft | 401 kts | 57° |
| 2026-05-04 21:59 | 35.28356 | -80.13389 | 17872 ft | 403 kts | 57° |
| 2026-05-04 21:59 | 35.29724 | -80.10376 | 18353 ft | 407 kts | 60° |
| 2026-05-04 21:59 | 35.30829 | -80.07165 | 18717 ft | 412 kts | 66° |
| 2026-05-04 22:00 | 35.31811 | -80.03851 | 19100 ft | 416 kts | 68° |
| 2026-05-04 22:00 | 35.32780 | -80.00501 | 19459 ft | 419 kts | 68° |
| 2026-05-04 22:00 | 35.33760 | -79.97118 | 19842 ft | 422 kts | 68° |
| 2026-05-04 22:00 | 35.34749 | -79.93710 | 20209 ft | 426 kts | 68° |
| 2026-05-04 22:01 | 35.35740 | -79.90299 | 20693 ft | 424 kts | 68° |
| 2026-05-04 22:01 | 35.36726 | -79.86903 | 21315 ft | 421 kts | 68° |
| 2026-05-04 22:01 | 35.37706 | -79.83532 | 21859 ft | 420 kts | 68° |
| 2026-05-04 22:01 | 35.38699 | -79.80128 | 22067 ft | 428 kts | 68° |
| 2026-05-04 22:02 | 35.39710 | -79.76655 | 22248 ft | 436 kts | 68° |
| 2026-05-04 22:02 | 35.40733 | -79.73132 | 22520 ft | 441 kts | 68° |
| 2026-05-04 22:02 | 35.41761 | -79.69586 | 22846 ft | 444 kts | 68° |
| 2026-05-04 22:02 | 35.42797 | -79.66005 | 23025 ft | 445 kts | 68° |
| 2026-05-04 22:03 | 35.43833 | -79.62421 | 23098 ft | 448 kts | 68° |
| 2026-05-04 22:03 | 35.44863 | -79.58855 | 23451 ft | 450 kts | 68° |
| 2026-05-04 22:03 | 35.45909 | -79.55230 | 23790 ft | 452 kts | 68° |
| 2026-05-04 22:03 | 35.46960 | -79.51587 | 24073 ft | 454 kts | 68° |
| 2026-05-04 22:04 | 35.48017 | -79.47915 | 24356 ft | 457 kts | 68° |
| 2026-05-04 22:04 | 35.49075 | -79.44233 | 24639 ft | 459 kts | 68° |
| 2026-05-04 22:04 | 35.50141 | -79.40521 | 24919 ft | 462 kts | 68° |
| 2026-05-04 22:04 | 35.51208 | -79.36798 | 25223 ft | 464 kts | 68° |
| 2026-05-04 22:05 | 35.52281 | -79.33053 | 25505 ft | 466 kts | 68° |
| 2026-05-04 22:05 | 35.53357 | -79.29287 | 25812 ft | 469 kts | 68° |
| 2026-05-04 22:05 | 35.54441 | -79.25492 | 26116 ft | 471 kts | 68° |
| 2026-05-04 22:05 | 35.55527 | -79.21684 | 26440 ft | 474 kts | 68° |
| 2026-05-04 22:06 | 35.56617 | -79.17853 | 26769 ft | 477 kts | 68° |
| 2026-05-04 22:06 | 35.57745 | -79.14005 | 27089 ft | 479 kts | 65° |
| 2026-05-04 22:06 | 35.59195 | -79.10326 | 27419 ft | 478 kts | 56° |
| 2026-05-04 22:06 | 35.61121 | -79.07014 | 27773 ft | 475 kts | 45° |
| 2026-05-04 22:07 | 35.63450 | -79.04146 | 28134 ft | 474 kts | 38° |
| 2026-05-04 22:07 | 35.65925 | -79.01449 | 28469 ft | 477 kts | 36° |
| 2026-05-04 22:07 | 35.68432 | -78.98758 | 28872 ft | 480 kts | 36° |
| 2026-05-04 22:07 | 35.70921 | -78.96079 | 29261 ft | 482 kts | 36° |
| 2026-05-04 22:08 | 35.73448 | -78.93351 | 29631 ft | 486 kts | 36° |
| 2026-05-04 22:08 | 35.75996 | -78.90593 | 30054 ft | 489 kts | 36° |
| 2026-05-04 22:08 | 35.78566 | -78.87804 | 30408 ft | 492 kts | 37° |
| 2026-05-04 22:08 | 35.81139 | -78.85008 | 30757 ft | 495 kts | 37° |
| 2026-05-04 22:09 | 35.83731 | -78.82188 | 31103 ft | 498 kts | 37° |
| 2026-05-04 22:09 | 35.86340 | -78.79347 | 31438 ft | 501 kts | 37° |
| 2026-05-04 22:09 | 35.88965 | -78.76502 | 31762 ft | 504 kts | 36° |
| 2026-05-04 22:09 | 35.91631 | -78.73682 | 32099 ft | 506 kts | 36° |
| 2026-05-04 22:10 | 35.94330 | -78.70862 | 32402 ft | 509 kts | 35° |
| 2026-05-04 22:10 | 35.97046 | -78.68034 | 32740 ft | 511 kts | 35° |
| 2026-05-04 22:10 | 35.99772 | -78.65191 | 32973 ft | 515 kts | 35° |
| 2026-05-04 22:10 | 36.02518 | -78.62319 | 33236 ft | 518 kts | 36° |
| 2026-05-04 22:11 | 36.05272 | -78.59429 | 33532 ft | 521 kts | 36° |
| 2026-05-04 22:11 | 36.08035 | -78.56520 | 33827 ft | 523 kts | 36° |
| 2026-05-04 22:11 | 36.10802 | -78.53600 | 34189 ft | 523 kts | 36° |
| 2026-05-04 22:11 | 36.13561 | -78.50683 | 34560 ft | 522 kts | 36° |
| 2026-05-04 22:12 | 36.16316 | -78.47767 | 34926 ft | 521 kts | 36° |
| 2026-05-04 22:12 | 36.19036 | -78.44886 | 35297 ft | 521 kts | 35° |
| 2026-05-04 22:12 | 36.21788 | -78.41970 | 35599 ft | 522 kts | 35° |
| 2026-05-04 22:12 | 36.24546 | -78.39046 | 35949 ft | 521 kts | 35° |
| 2026-05-04 22:13 | 36.27298 | -78.36125 | 36321 ft | 521 kts | 36° |
| 2026-05-04 22:13 | 36.30046 | -78.33206 | 36700 ft | 520 kts | 36° |
| 2026-05-04 22:13 | 36.32795 | -78.30283 | 37054 ft | 519 kts | 36° |
| 2026-05-04 22:13 | 36.35533 | -78.27369 | 37414 ft | 519 kts | 36° |
| 2026-05-04 22:14 | 36.38277 | -78.24445 | 37773 ft | 518 kts | 36° |
| 2026-05-04 22:14 | 36.40971 | -78.21463 | 38136 ft | 519 kts | 38° |
| 2026-05-04 22:14 | 36.43596 | -78.18392 | 38558 ft | 517 kts | 39° |
| 2026-05-04 22:14 | 36.46182 | -78.15294 | 38863 ft | 516 kts | 39° |
| 2026-05-04 22:15 | 36.48764 | -78.12189 | 39059 ft | 517 kts | 39° |
| 2026-05-04 22:15 | 36.51356 | -78.09085 | 39253 ft | 518 kts | 39° |
| 2026-05-04 22:15 | 36.53955 | -78.05989 | 39452 ft | 518 kts | 39° |
| 2026-05-04 22:15 | 36.56563 | -78.02897 | 39693 ft | 518 kts | 39° |
| 2026-05-04 22:16 | 36.59177 | -77.99807 | 39913 ft | 518 kts | 39° |
| 2026-05-04 22:16 | 36.61761 | -77.96754 | 40091 ft | 519 kts | 39° |
| 2026-05-04 22:16 | 36.64384 | -77.93656 | 40286 ft | 520 kts | 39° |
| 2026-05-04 22:16 | 36.67018 | -77.90542 | 40419 ft | 522 kts | 39° |
| 2026-05-04 22:17 | 36.69646 | -77.87431 | 40607 ft | 522 kts | 39° |
| 2026-05-04 22:17 | 36.72274 | -77.84315 | 40784 ft | 522 kts | 39° |
| 2026-05-04 22:17 | 36.74902 | -77.81195 | 40933 ft | 522 kts | 39° |
| 2026-05-04 22:18 | 36.80166 | -77.74942 | 40989 ft | 522 kts | 39° |
| 2026-05-04 22:18 | 36.85433 | -77.68678 | 40997 ft | 522 kts | 39° |
| 2026-05-04 22:19 | 36.90684 | -77.62413 | 40978 ft | 522 kts | 39° |
| 2026-05-04 22:19 | 36.95932 | -77.56140 | 40980 ft | 522 kts | 39° |
| 2026-05-04 22:20 | 37.01187 | -77.49850 | 40981 ft | 523 kts | 39° |
| 2026-05-04 22:20 | 37.06407 | -77.43605 | 40982 ft | 522 kts | 38° |
| 2026-05-04 22:21 | 37.12271 | -77.38464 | 40982 ft | 509 kts | 21° |
| 2026-05-04 22:21 | 37.18797 | -77.35186 | 40981 ft | 503 kts | 14° |
| 2026-05-04 22:22 | 37.25424 | -77.32325 | 40983 ft | 503 kts | 13° |
| 2026-05-04 22:22 | 37.32044 | -77.29518 | 40965 ft | 502 kts | 13° |
| 2026-05-04 22:23 | 37.38647 | -77.26676 | 40957 ft | 501 kts | 14° |
| 2026-05-04 22:23 | 37.45239 | -77.23806 | 40952 ft | 501 kts | 14° |
| 2026-05-04 22:24 | 37.51790 | -77.20943 | 40959 ft | 502 kts | 14° |
| 2026-05-04 22:24 | 37.58369 | -77.18061 | 40957 ft | 500 kts | 14° |
| 2026-05-04 22:25 | 37.64940 | -77.15178 | 40956 ft | 500 kts | 14° |
| 2026-05-04 22:25 | 37.71371 | -77.11763 | 40963 ft | 505 kts | 22° |
| 2026-05-04 22:26 | 37.77591 | -77.07599 | 40964 ft | 506 kts | 24° |
| 2026-05-04 22:26 | 37.83769 | -77.03301 | 40963 ft | 507 kts | 24° |
| 2026-05-04 22:27 | 37.88900 | -76.99716 | 40962 ft | 507 kts | 24° |
| 2026-05-04 22:27 | 37.96079 | -76.94713 | 40960 ft | 506 kts | 24° |
| 2026-05-04 22:28 | 38.02247 | -76.90418 | 40938 ft | 505 kts | 24° |
| 2026-05-04 22:28 | 38.07406 | -76.86822 | 40938 ft | 505 kts | 24° |
| 2026-05-04 22:29 | 38.13543 | -76.82536 | 40934 ft | 506 kts | 24° |
| 2026-05-04 22:29 | 38.19716 | -76.78216 | 40932 ft | 505 kts | 24° |
| 2026-05-04 22:30 | 38.25688 | -76.73458 | 40936 ft | 510 kts | 34° |
| 2026-05-04 22:30 | 38.31205 | -76.67754 | 40934 ft | 511 kts | 36° |
| 2026-05-04 22:31 | 38.36587 | -76.61917 | 40950 ft | 511 kts | 37° |
| 2026-05-04 22:31 | 38.41992 | -76.56012 | 40939 ft | 511 kts | 37° |
| 2026-05-04 22:32 | 38.47407 | -76.50160 | 40939 ft | 510 kts | 36° |
| 2026-05-04 22:32 | 38.52858 | -76.44311 | 40941 ft | 512 kts | 36° |
| 2026-05-04 22:33 | 38.58316 | -76.38448 | 40946 ft | 512 kts | 36° |
| 2026-05-04 22:33 | 38.63767 | -76.32571 | 40947 ft | 512 kts | 36° |
| 2026-05-04 22:34 | 38.69180 | -76.26721 | 40940 ft | 512 kts | 36° |
| 2026-05-04 22:34 | 38.74620 | -76.20827 | 40935 ft | 512 kts | 36° |
| 2026-05-04 22:35 | 38.80061 | -76.14921 | 40935 ft | 512 kts | 36° |
| 2026-05-04 22:35 | 38.85497 | -76.09009 | 40935 ft | 512 kts | 37° |
| 2026-05-04 22:36 | 38.90926 | -76.03091 | 40935 ft | 512 kts | 37° |
| 2026-05-04 22:36 | 38.96352 | -75.97166 | 40950 ft | 512 kts | 37° |
| 2026-05-04 22:37 | 39.01662 | -75.91044 | 40922 ft | 513 kts | 39° |
| 2026-05-04 22:37 | 39.06830 | -75.84770 | 40924 ft | 513 kts | 40° |
| 2026-05-04 22:38 | 39.12040 | -75.78465 | 40911 ft | 513 kts | 39° |
| 2026-05-04 22:38 | 39.17265 | -75.72186 | 40909 ft | 514 kts | 39° |
| 2026-05-04 22:39 | 39.22507 | -75.65907 | 40909 ft | 514 kts | 39° |
| 2026-05-04 22:39 | 39.27735 | -75.59633 | 40906 ft | 514 kts | 39° |
| 2026-05-04 22:40 | 39.32930 | -75.53386 | 40912 ft | 513 kts | 39° |
| 2026-05-04 22:40 | 39.38152 | -75.47084 | 40921 ft | 512 kts | 39° |
| 2026-05-04 22:41 | 39.43340 | -75.40807 | 40919 ft | 511 kts | 39° |
| 2026-05-04 22:41 | 39.48540 | -75.34505 | 40918 ft | 512 kts | 39° |
| 2026-05-04 22:42 | 39.53746 | -75.28185 | 40937 ft | 513 kts | 39° |
| 2026-05-04 22:42 | 39.58936 | -75.21871 | 40920 ft | 511 kts | 39° |
| 2026-05-04 22:43 | 39.64117 | -75.15553 | 40915 ft | 511 kts | 39° |
| 2026-05-04 22:43 | 39.69298 | -75.09245 | 40916 ft | 510 kts | 38° |
| 2026-05-04 22:44 | 39.74613 | -75.03224 | 40908 ft | 509 kts | 37° |
| 2026-05-04 22:44 | 39.80016 | -74.97266 | 40917 ft | 509 kts | 37° |
| 2026-05-04 22:45 | 39.85394 | -74.91260 | 40913 ft | 510 kts | 37° |
| 2026-05-04 22:45 | 39.93691 | -74.82662 | 40925 ft | 506 kts | 32° |
| 2026-05-04 22:46 | 39.99419 | -74.77339 | 40915 ft | 504 kts | 31° |
| 2026-05-04 22:46 | 40.04857 | -74.71492 | 40918 ft | 510 kts | 41° |
| 2026-05-04 22:47 | 40.09711 | -74.64813 | 40899 ft | 511 kts | 44° |
| 2026-05-04 22:47 | 40.14482 | -74.57921 | 40902 ft | 511 kts | 45° |